createdAt,value
2018-07-05T00:00:12.000Z,31
2018-07-05T00:01:12.000Z,31
2018-07-05T00:02:12.000Z,31
2018-07-05T00:03:12.000Z,31
2018-07-05T00:04:12.000Z,31
2018-07-05T00:06:12.000Z,31
2018-07-05T00:07:12.000Z,31
2018-07-05T00:09:12.000Z,31
2018-07-05T00:10:12.000Z,31
2018-07-05T00:12:12.000Z,31
2018-07-05T00:13:12.000Z,31
2018-07-05T00:14:12.000Z,31
2018-07-05T00:15:12.000Z,31
2018-07-05T00:16:12.000Z,31
2018-07-05T00:17:12.000Z,31
2018-07-05T00:18:12.000Z,31
2018-07-05T00:19:12.000Z,31
2018-07-05T00:20:12.000Z,31
2018-07-05T00:21:12.000Z,31
2018-07-05T00:22:12.000Z,31
2018-07-05T00:23:12.000Z,31
2018-07-05T00:24:12.000Z,31
2018-07-05T00:25:12.000Z,31
2018-07-05T00:27:12.000Z,31
2018-07-05T00:29:12.000Z,31
2018-07-05T00:30:12.000Z,31
2018-07-05T00:31:12.000Z,31
2018-07-05T00:32:12.000Z,31
2018-07-05T00:33:12.000Z,31
2018-07-05T00:35:12.000Z,31
2018-07-05T00:36:12.000Z,31
2018-07-05T00:37:12.000Z,31
2018-07-05T00:39:12.000Z,31
2018-07-05T00:40:12.000Z,31
2018-07-05T00:42:12.000Z,31
2018-07-05T00:43:11.000Z,31
2018-07-05T00:45:11.000Z,31
2018-07-05T00:46:11.000Z,31
2018-07-05T00:47:11.000Z,31
2018-07-05T00:49:11.000Z,31
2018-07-05T00:50:11.000Z,31
2018-07-05T00:51:11.000Z,32
2018-07-05T00:52:11.000Z,31
2018-07-05T00:53:11.000Z,32
2018-07-05T00:54:11.000Z,31
2018-07-05T00:55:11.000Z,32
2018-07-05T00:56:11.000Z,32
2018-07-05T00:58:11.000Z,31
2018-07-05T00:59:11.000Z,31
2018-07-05T01:00:11.000Z,31
2018-07-05T01:01:11.000Z,31
2018-07-05T01:02:11.000Z,32
2018-07-05T01:03:11.000Z,31
2018-07-05T01:04:11.000Z,31
2018-07-05T01:05:11.000Z,31
2018-07-05T01:06:11.000Z,31
2018-07-05T01:07:11.000Z,31
2018-07-05T01:08:11.000Z,31
2018-07-05T01:09:11.000Z,31
2018-07-05T01:10:11.000Z,31
2018-07-05T01:11:11.000Z,31
2018-07-05T01:13:11.000Z,31
2018-07-05T01:14:11.000Z,31
2018-07-05T01:16:11.000Z,31
2018-07-05T01:17:11.000Z,31
2018-07-05T01:18:11.000Z,31
2018-07-05T01:19:11.000Z,31
2018-07-05T01:20:11.000Z,31
2018-07-05T01:21:11.000Z,31
2018-07-05T01:22:11.000Z,32
2018-07-05T01:23:11.000Z,31
2018-07-05T01:24:11.000Z,31
2018-07-05T01:25:11.000Z,31
2018-07-05T01:26:11.000Z,31
2018-07-05T01:27:11.000Z,31
2018-07-05T01:29:11.000Z,31
2018-07-05T01:30:11.000Z,31
2018-07-05T01:31:11.000Z,32
2018-07-05T01:32:11.000Z,31
2018-07-05T01:33:11.000Z,31
2018-07-05T01:34:11.000Z,31
2018-07-05T01:35:11.000Z,31
2018-07-05T01:36:11.000Z,31
2018-07-05T01:37:11.000Z,31
2018-07-05T01:39:11.000Z,31
2018-07-05T01:40:11.000Z,31
2018-07-05T01:42:11.000Z,31
2018-07-05T01:43:11.000Z,32
2018-07-05T01:45:11.000Z,31
2018-07-05T01:46:11.000Z,31
2018-07-05T01:47:11.000Z,31
2018-07-05T01:48:11.000Z,32
2018-07-05T01:49:11.000Z,31
2018-07-05T01:50:11.000Z,32
2018-07-05T01:51:11.000Z,32
2018-07-05T01:52:11.000Z,31
2018-07-05T01:53:11.000Z,32
2018-07-05T01:54:11.000Z,32
2018-07-05T01:56:11.000Z,31
2018-07-05T01:57:11.000Z,32
2018-07-05T01:58:11.000Z,31
2018-07-05T01:59:11.000Z,32
2018-07-05T02:00:11.000Z,31
2018-07-05T02:01:11.000Z,32
2018-07-05T02:02:11.000Z,32
2018-07-05T02:04:11.000Z,31
2018-07-05T02:05:11.000Z,32
2018-07-05T02:06:11.000Z,31
2018-07-05T02:07:11.000Z,32
2018-07-05T02:08:11.000Z,32
2018-07-05T02:09:11.000Z,32
2018-07-05T02:10:11.000Z,31
2018-07-05T02:11:11.000Z,31
2018-07-05T02:12:11.000Z,31
2018-07-05T02:13:11.000Z,31
2018-07-05T02:14:11.000Z,31
2018-07-05T02:15:11.000Z,31
2018-07-05T02:16:11.000Z,31
2018-07-05T02:17:11.000Z,31
2018-07-05T02:18:11.000Z,31
2018-07-05T02:19:11.000Z,31
2018-07-05T02:20:11.000Z,31
2018-07-05T02:21:11.000Z,31
2018-07-05T02:22:11.000Z,31
2018-07-05T02:23:11.000Z,31
2018-07-05T02:24:11.000Z,31
2018-07-05T02:26:11.000Z,31
2018-07-05T02:28:11.000Z,31
2018-07-05T02:29:11.000Z,31
2018-07-05T02:30:11.000Z,32
2018-07-05T02:32:11.000Z,31
2018-07-05T02:34:11.000Z,31
2018-07-05T02:35:11.000Z,32
2018-07-05T02:36:11.000Z,32
2018-07-05T02:37:11.000Z,32
2018-07-05T02:38:11.000Z,32
2018-07-05T02:39:11.000Z,32
2018-07-05T02:40:11.000Z,32
2018-07-05T02:41:11.000Z,32
2018-07-05T02:42:11.000Z,32
2018-07-05T02:43:11.000Z,32
2018-07-05T02:44:11.000Z,32
2018-07-05T02:45:11.000Z,32
2018-07-05T02:46:11.000Z,32
2018-07-05T02:47:11.000Z,31
2018-07-05T02:48:11.000Z,31
2018-07-05T02:49:11.000Z,31
2018-07-05T02:50:11.000Z,31
2018-07-05T02:51:11.000Z,31
2018-07-05T02:52:11.000Z,31
2018-07-05T02:53:11.000Z,32
2018-07-05T02:54:11.000Z,31
2018-07-05T02:55:11.000Z,31
2018-07-05T02:56:11.000Z,32
2018-07-05T02:57:11.000Z,31
2018-07-05T02:58:11.000Z,31
2018-07-05T02:59:11.000Z,32
2018-07-05T03:00:11.000Z,31
2018-07-05T03:01:11.000Z,31
2018-07-05T03:02:11.000Z,31
2018-07-05T03:03:11.000Z,31
2018-07-05T03:04:11.000Z,31
2018-07-05T03:05:11.000Z,31
2018-07-05T03:06:11.000Z,31
2018-07-05T03:07:11.000Z,31
2018-07-05T03:08:11.000Z,31
2018-07-05T03:09:11.000Z,31
2018-07-05T03:11:11.000Z,31
2018-07-05T03:12:11.000Z,32
2018-07-05T03:13:11.000Z,32
2018-07-05T03:14:11.000Z,32
2018-07-05T03:16:11.000Z,31
2018-07-05T03:17:11.000Z,32
2018-07-05T03:18:11.000Z,32
2018-07-05T03:19:11.000Z,32
2018-07-05T03:20:11.000Z,32
2018-07-05T03:21:11.000Z,32
2018-07-05T03:22:11.000Z,32
2018-07-05T03:23:11.000Z,32
2018-07-05T03:24:11.000Z,32
2018-07-05T03:25:11.000Z,31
2018-07-05T03:26:11.000Z,32
2018-07-05T03:27:11.000Z,31
2018-07-05T03:28:11.000Z,31
2018-07-05T03:29:11.000Z,32
2018-07-05T03:30:11.000Z,31
2018-07-05T03:31:11.000Z,31
2018-07-05T03:32:11.000Z,31
2018-07-05T03:33:11.000Z,31
2018-07-05T03:34:11.000Z,31
2018-07-05T03:35:11.000Z,31
2018-07-05T03:37:11.000Z,31
2018-07-05T03:38:11.000Z,32
2018-07-05T03:39:11.000Z,32
2018-07-05T03:40:11.000Z,32
2018-07-05T03:41:11.000Z,32
2018-07-05T03:43:11.000Z,32
2018-07-05T03:44:11.000Z,32
2018-07-05T03:45:11.000Z,32
2018-07-05T03:46:11.000Z,32
2018-07-05T03:47:11.000Z,32
2018-07-05T03:48:11.000Z,32
2018-07-05T03:49:11.000Z,32
2018-07-05T03:50:11.000Z,32
2018-07-05T03:51:11.000Z,32
2018-07-05T03:53:11.000Z,32
2018-07-05T03:54:12.000Z,32
2018-07-05T03:55:12.000Z,32
2018-07-05T03:56:12.000Z,32
2018-07-05T03:57:12.000Z,32
2018-07-05T03:58:12.000Z,32
2018-07-05T03:59:12.000Z,32
2018-07-05T04:00:12.000Z,32
2018-07-05T04:02:12.000Z,32
2018-07-05T04:03:12.000Z,32
2018-07-05T04:04:12.000Z,32
2018-07-05T04:05:12.000Z,32
2018-07-05T04:06:12.000Z,32
2018-07-05T04:07:12.000Z,32
2018-07-05T04:08:12.000Z,32
2018-07-05T04:09:12.000Z,32
2018-07-05T04:10:12.000Z,32
2018-07-05T04:11:12.000Z,32
2018-07-05T04:12:12.000Z,32
2018-07-05T04:14:12.000Z,32
2018-07-05T04:15:12.000Z,32
2018-07-05T04:16:12.000Z,32
2018-07-05T04:17:12.000Z,32
2018-07-05T04:18:12.000Z,32
2018-07-05T04:19:12.000Z,32
2018-07-05T04:20:12.000Z,32
2018-07-05T04:21:12.000Z,32
2018-07-05T04:22:12.000Z,32
2018-07-05T04:24:12.000Z,32
2018-07-05T04:25:12.000Z,32
2018-07-05T04:26:12.000Z,32
2018-07-05T04:27:12.000Z,32
2018-07-05T04:28:12.000Z,32
2018-07-05T04:29:12.000Z,32
2018-07-05T04:30:12.000Z,32
2018-07-05T04:31:12.000Z,33
2018-07-05T04:32:12.000Z,33
2018-07-05T04:33:12.000Z,33
2018-07-05T04:34:12.000Z,33
2018-07-05T04:35:12.000Z,34
2018-07-05T04:36:12.000Z,34
2018-07-05T04:37:12.000Z,34
2018-07-05T04:38:12.000Z,34
2018-07-05T04:39:12.000Z,34
2018-07-05T04:40:12.000Z,34
2018-07-05T04:42:12.000Z,34
2018-07-05T04:43:12.000Z,34
2018-07-05T04:46:59.000Z,35
2018-07-05T04:48:59.000Z,35
2018-07-05T04:50:59.000Z,35
2018-07-05T04:51:59.000Z,35
2018-07-05T04:52:59.000Z,35
2018-07-05T04:53:59.000Z,35
2018-07-05T04:54:59.000Z,35
2018-07-05T04:55:59.000Z,35
2018-07-05T04:56:59.000Z,35
2018-07-05T04:57:59.000Z,35
2018-07-05T04:59:59.000Z,35
2018-07-05T05:00:59.000Z,36
2018-07-05T05:01:59.000Z,36
2018-07-05T05:03:59.000Z,35
2018-07-05T05:04:59.000Z,35
2018-07-05T05:05:59.000Z,35
2018-07-05T05:06:59.000Z,35
2018-07-05T05:07:59.000Z,35
2018-07-05T05:08:59.000Z,36
2018-07-05T05:09:59.000Z,36
2018-07-05T05:10:59.000Z,36
2018-07-05T05:11:59.000Z,36
2018-07-05T05:12:59.000Z,36
2018-07-05T05:13:59.000Z,36
2018-07-05T05:14:59.000Z,36
2018-07-05T05:15:59.000Z,36
2018-07-05T05:16:59.000Z,36
2018-07-05T05:17:59.000Z,36
2018-07-05T05:19:59.000Z,36
2018-07-05T05:20:59.000Z,36
2018-07-05T05:21:59.000Z,36
2018-07-05T05:22:59.000Z,36
2018-07-05T05:23:59.000Z,37
2018-07-05T05:24:59.000Z,37
2018-07-05T05:25:59.000Z,37
2018-07-05T05:26:59.000Z,37
2018-07-05T05:27:59.000Z,37
2018-07-05T05:28:59.000Z,37
2018-07-05T05:29:59.000Z,37
2018-07-05T05:31:59.000Z,37
2018-07-05T05:32:59.000Z,37
2018-07-05T05:33:59.000Z,37
2018-07-05T05:34:59.000Z,38
2018-07-05T05:35:59.000Z,38
2018-07-05T05:36:59.000Z,38
2018-07-05T05:37:59.000Z,38
2018-07-05T05:38:59.000Z,38
2018-07-05T05:40:59.000Z,39
2018-07-05T05:41:59.000Z,39
2018-07-05T05:42:59.000Z,39
2018-07-05T05:43:59.000Z,39
2018-07-05T05:44:59.000Z,39
2018-07-05T05:45:59.000Z,39
2018-07-05T05:47:59.000Z,39
2018-07-05T05:48:59.000Z,40
2018-07-05T05:49:59.000Z,40
2018-07-05T05:50:59.000Z,40
2018-07-05T05:51:59.000Z,40
2018-07-05T05:52:59.000Z,40
2018-07-05T05:54:59.000Z,40
2018-07-05T05:55:59.000Z,40
2018-07-05T05:56:59.000Z,40
2018-07-05T05:57:59.000Z,40
2018-07-05T05:59:59.000Z,40
2018-07-05T06:00:59.000Z,40
2018-07-05T06:01:59.000Z,40
2018-07-05T06:02:59.000Z,40
2018-07-05T06:03:59.000Z,40
2018-07-05T06:04:59.000Z,40
2018-07-05T06:05:59.000Z,40
2018-07-05T06:06:59.000Z,40
2018-07-05T06:07:59.000Z,40
2018-07-05T06:08:59.000Z,40
2018-07-05T06:09:59.000Z,40
2018-07-05T06:10:59.000Z,40
2018-07-05T06:11:59.000Z,40
2018-07-05T06:12:59.000Z,40
2018-07-05T06:13:59.000Z,40
2018-07-05T06:14:59.000Z,40
2018-07-05T06:15:59.000Z,40
2018-07-05T06:16:59.000Z,40
2018-07-05T06:17:59.000Z,40
2018-07-05T06:18:59.000Z,41
2018-07-05T06:19:59.000Z,40
2018-07-05T06:20:59.000Z,41
2018-07-05T06:21:59.000Z,41
2018-07-05T06:22:59.000Z,41
2018-07-05T06:23:59.000Z,41
2018-07-05T06:24:59.000Z,41
2018-07-05T06:25:59.000Z,41
2018-07-05T06:26:59.000Z,41
2018-07-05T06:27:59.000Z,41
2018-07-05T06:28:59.000Z,41
2018-07-05T06:29:59.000Z,41
2018-07-05T06:30:59.000Z,41
2018-07-05T06:31:59.000Z,41
2018-07-05T06:32:59.000Z,42
2018-07-05T06:33:59.000Z,41
2018-07-05T06:34:59.000Z,42
2018-07-05T06:35:59.000Z,42
2018-07-05T06:36:59.000Z,41
2018-07-05T06:37:59.000Z,41
2018-07-05T06:38:59.000Z,41
2018-07-05T06:40:59.000Z,41
2018-07-05T06:41:59.000Z,41
2018-07-05T06:42:59.000Z,41
2018-07-05T06:43:59.000Z,41
2018-07-05T06:44:59.000Z,41
2018-07-05T06:45:59.000Z,41
2018-07-05T06:47:59.000Z,41
2018-07-05T06:48:59.000Z,41
2018-07-05T06:50:59.000Z,41
2018-07-05T06:51:59.000Z,41
2018-07-05T06:52:59.000Z,41
2018-07-05T06:53:59.000Z,41
2018-07-05T06:55:00.000Z,41
2018-07-05T06:56:00.000Z,41
2018-07-05T06:57:00.000Z,41
2018-07-05T06:58:00.000Z,41
2018-07-05T06:59:00.000Z,41
2018-07-05T07:00:00.000Z,41
2018-07-05T07:01:00.000Z,41
2018-07-05T07:02:00.000Z,42
2018-07-05T07:04:00.000Z,42
2018-07-05T07:05:00.000Z,42
2018-07-05T07:06:00.000Z,42
2018-07-05T07:07:00.000Z,42
2018-07-05T07:08:00.000Z,42
2018-07-05T07:09:00.000Z,42
2018-07-05T07:10:00.000Z,42
2018-07-05T07:11:00.000Z,42
2018-07-05T07:12:00.000Z,42
2018-07-05T07:14:00.000Z,42
2018-07-05T07:15:00.000Z,42
2018-07-05T07:16:00.000Z,43
2018-07-05T07:17:00.000Z,43
2018-07-05T07:18:00.000Z,44
2018-07-05T07:19:00.000Z,44
2018-07-05T07:20:00.000Z,44
2018-07-05T07:21:00.000Z,44
2018-07-05T07:22:00.000Z,45
2018-07-05T07:23:00.000Z,45
2018-07-05T07:24:00.000Z,45
2018-07-05T07:26:00.000Z,46
2018-07-05T07:27:00.000Z,46
2018-07-05T07:28:00.000Z,47
2018-07-05T07:29:00.000Z,47
2018-07-05T07:30:00.000Z,47
2018-07-05T07:31:00.000Z,47
2018-07-05T07:32:00.000Z,47
2018-07-05T07:33:00.000Z,47
2018-07-05T07:34:00.000Z,47
2018-07-05T07:35:00.000Z,47
2018-07-05T07:36:00.000Z,48
2018-07-05T07:37:00.000Z,48
2018-07-05T07:38:00.000Z,48
2018-07-05T07:39:00.000Z,48
2018-07-05T07:40:00.000Z,48
2018-07-05T07:41:00.000Z,48
2018-07-05T07:42:00.000Z,49
2018-07-05T07:43:00.000Z,48
2018-07-05T07:44:00.000Z,49
2018-07-05T07:46:00.000Z,49
2018-07-05T07:47:00.000Z,50
2018-07-05T07:48:00.000Z,50
2018-07-05T07:49:00.000Z,50
2018-07-05T07:50:00.000Z,50
2018-07-05T07:51:00.000Z,50
2018-07-05T07:52:00.000Z,50
2018-07-05T07:53:00.000Z,50
2018-07-05T07:54:00.000Z,50
2018-07-05T07:55:00.000Z,51
2018-07-05T07:56:00.000Z,50
2018-07-05T07:57:59.000Z,50
2018-07-05T07:58:59.000Z,51
2018-07-05T07:59:59.000Z,51
2018-07-05T08:00:59.000Z,51
2018-07-05T08:01:59.000Z,51
2018-07-05T08:03:59.000Z,50
2018-07-05T08:04:59.000Z,50
2018-07-05T08:05:59.000Z,50
2018-07-05T08:06:59.000Z,50
2018-07-05T08:07:59.000Z,50
2018-07-05T08:08:59.000Z,50
2018-07-05T08:09:59.000Z,50
2018-07-05T08:10:59.000Z,50
2018-07-05T08:11:59.000Z,50
2018-07-05T08:13:59.000Z,50
2018-07-05T08:15:59.000Z,50
2018-07-05T08:16:59.000Z,50
2018-07-05T08:17:59.000Z,50
2018-07-05T08:18:59.000Z,50
2018-07-05T08:19:59.000Z,50
2018-07-05T08:20:59.000Z,50
2018-07-05T08:21:59.000Z,50
2018-07-05T08:22:59.000Z,50
2018-07-05T08:23:59.000Z,50
2018-07-05T08:24:59.000Z,50
2018-07-05T08:26:59.000Z,50
2018-07-05T08:27:59.000Z,50
2018-07-05T08:28:59.000Z,50
2018-07-05T08:29:59.000Z,50
2018-07-05T08:30:59.000Z,50
2018-07-05T08:31:59.000Z,50
2018-07-05T08:33:59.000Z,50
2018-07-05T08:34:59.000Z,50
2018-07-05T08:35:59.000Z,50
2018-07-05T08:36:59.000Z,50
2018-07-05T08:37:59.000Z,50
2018-07-05T08:38:59.000Z,50
2018-07-05T08:39:59.000Z,49
2018-07-05T08:40:59.000Z,49
2018-07-05T08:41:59.000Z,49
2018-07-05T08:42:59.000Z,49
2018-07-05T08:43:59.000Z,49
2018-07-05T08:44:59.000Z,48
2018-07-05T08:46:59.000Z,48
2018-07-05T08:47:59.000Z,48
2018-07-05T08:48:59.000Z,47
2018-07-05T08:49:59.000Z,47
2018-07-05T08:50:59.000Z,46
2018-07-05T08:51:59.000Z,46
2018-07-05T08:52:59.000Z,45
2018-07-05T08:53:59.000Z,45
2018-07-05T08:54:59.000Z,44
2018-07-05T08:56:59.000Z,43
2018-07-05T08:57:59.000Z,43
2018-07-05T08:58:59.000Z,42
2018-07-05T08:59:59.000Z,42
2018-07-05T09:02:00.000Z,41
2018-07-05T09:03:00.000Z,40
2018-07-05T09:05:00.000Z,40
2018-07-05T09:06:00.000Z,40
2018-07-05T09:07:00.000Z,40
2018-07-05T09:08:00.000Z,40
2018-07-05T09:09:00.000Z,40
2018-07-05T09:11:00.000Z,40
2018-07-05T09:12:00.000Z,40
2018-07-05T09:13:00.000Z,40
2018-07-05T09:14:00.000Z,40
2018-07-05T09:15:00.000Z,40
2018-07-05T09:16:00.000Z,41
2018-07-05T09:17:00.000Z,41
2018-07-05T09:18:00.000Z,41
2018-07-05T09:20:00.000Z,42
2018-07-05T09:21:00.000Z,42
2018-07-05T09:22:00.000Z,42
2018-07-05T09:23:00.000Z,42
2018-07-05T09:25:00.000Z,42
2018-07-05T09:26:00.000Z,43
2018-07-05T09:27:00.000Z,43
2018-07-05T09:28:00.000Z,43
2018-07-05T09:29:00.000Z,43
2018-07-05T09:30:00.000Z,43
2018-07-05T09:31:00.000Z,43
2018-07-05T09:32:00.000Z,43
2018-07-05T09:33:00.000Z,44
2018-07-05T09:34:00.000Z,43
2018-07-05T09:35:00.000Z,44
2018-07-05T09:36:00.000Z,44
2018-07-05T09:37:00.000Z,44
2018-07-05T09:38:00.000Z,44
2018-07-05T09:39:00.000Z,44
2018-07-05T09:40:00.000Z,44
2018-07-05T09:41:00.000Z,45
2018-07-05T09:42:00.000Z,44
2018-07-05T09:44:00.000Z,44
2018-07-05T09:45:00.000Z,44
2018-07-05T09:46:00.000Z,45
2018-07-05T09:47:00.000Z,44
2018-07-05T09:49:00.000Z,44
2018-07-05T09:50:00.000Z,44
2018-07-05T09:51:00.000Z,44
2018-07-05T09:52:00.000Z,44
2018-07-05T09:54:00.000Z,43
2018-07-05T09:55:00.000Z,44
2018-07-05T09:56:00.000Z,43
2018-07-05T09:57:00.000Z,43
2018-07-05T09:59:00.000Z,43
2018-07-05T10:00:00.000Z,43
2018-07-05T10:01:00.000Z,43
2018-07-05T10:02:00.000Z,43
2018-07-05T10:03:00.000Z,43
2018-07-05T10:04:00.000Z,43
2018-07-05T10:05:00.000Z,43
2018-07-05T10:06:00.000Z,43
2018-07-05T10:07:00.000Z,43
2018-07-05T10:08:00.000Z,43
2018-07-05T10:09:00.000Z,42
2018-07-05T10:11:00.000Z,42
2018-07-05T10:12:00.000Z,42
2018-07-05T10:13:00.000Z,42
2018-07-05T10:14:00.000Z,42
2018-07-05T10:15:00.000Z,42
2018-07-05T10:16:00.000Z,42
2018-07-05T10:17:00.000Z,42
2018-07-05T10:18:00.000Z,42
2018-07-05T10:19:00.000Z,42
2018-07-05T10:20:00.000Z,42
2018-07-05T10:21:00.000Z,42
2018-07-05T10:22:00.000Z,42
2018-07-05T10:23:00.000Z,41
2018-07-05T10:24:00.000Z,41
2018-07-05T10:25:00.000Z,41
2018-07-05T10:26:00.000Z,41
2018-07-05T10:27:00.000Z,41
2018-07-05T10:28:00.000Z,41
2018-07-05T10:29:00.000Z,41
2018-07-05T10:31:00.000Z,40
2018-07-05T10:32:00.000Z,41
2018-07-05T10:33:00.000Z,40
2018-07-05T10:34:00.000Z,40
2018-07-05T10:35:00.000Z,40
2018-07-05T10:36:00.000Z,40
2018-07-05T10:37:00.000Z,40
2018-07-05T10:38:00.000Z,40
2018-07-05T10:39:00.000Z,40
2018-07-05T10:40:00.000Z,40
2018-07-05T10:41:00.000Z,40
2018-07-05T10:42:00.000Z,40
2018-07-05T10:43:00.000Z,40
2018-07-05T10:44:00.000Z,40
2018-07-05T10:45:00.000Z,39
2018-07-05T10:46:00.000Z,39
2018-07-05T10:47:00.000Z,39
2018-07-05T10:48:00.000Z,39
2018-07-05T10:50:00.000Z,39
2018-07-05T10:51:00.000Z,39
2018-07-05T10:52:00.000Z,39
2018-07-05T10:53:00.000Z,39
2018-07-05T10:54:00.000Z,39
2018-07-05T10:55:00.000Z,39
2018-07-05T10:57:00.000Z,39
2018-07-05T10:58:00.000Z,39
2018-07-05T10:59:00.000Z,39
2018-07-05T11:01:00.000Z,39
2018-07-05T11:03:00.000Z,39
2018-07-05T11:04:00.000Z,39
2018-07-05T11:06:00.000Z,39
2018-07-05T11:07:00.000Z,39
2018-07-05T11:08:00.000Z,39
2018-07-05T11:09:00.000Z,39
2018-07-05T11:11:00.000Z,38
2018-07-05T11:12:00.000Z,38
2018-07-05T11:13:00.000Z,38
2018-07-05T11:14:00.000Z,38
2018-07-05T11:15:00.000Z,38
2018-07-05T11:16:00.000Z,38
2018-07-05T11:17:00.000Z,38
2018-07-05T11:18:00.000Z,38
2018-07-05T11:19:00.000Z,38
2018-07-05T11:20:00.000Z,38
2018-07-05T11:21:00.000Z,38
2018-07-05T11:22:00.000Z,38
2018-07-05T11:23:00.000Z,38
2018-07-05T11:24:00.000Z,38
2018-07-05T11:25:00.000Z,38
2018-07-05T11:26:00.000Z,38
2018-07-05T11:28:00.000Z,37
2018-07-05T11:29:00.000Z,37
2018-07-05T11:30:00.000Z,37
2018-07-05T11:32:00.000Z,37
2018-07-05T11:33:00.000Z,37
2018-07-05T11:34:00.000Z,37
2018-07-05T11:35:00.000Z,37
2018-07-05T11:36:00.000Z,37
2018-07-05T11:37:00.000Z,37
2018-07-05T11:38:00.000Z,37
2018-07-05T11:39:00.000Z,37
2018-07-05T11:41:00.000Z,36
2018-07-05T11:42:00.000Z,36
2018-07-05T11:43:00.000Z,36
2018-07-05T11:44:00.000Z,36
2018-07-05T11:46:00.000Z,36
2018-07-05T11:47:00.000Z,36
2018-07-05T11:48:00.000Z,36
2018-07-05T11:49:00.000Z,36
2018-07-05T11:50:00.000Z,36
2018-07-05T11:51:00.000Z,36
2018-07-05T11:52:00.000Z,36
2018-07-05T11:53:00.000Z,36
2018-07-05T11:54:00.000Z,37
2018-07-05T11:55:00.000Z,36
2018-07-05T11:56:00.000Z,36
2018-07-05T11:57:00.000Z,36
2018-07-05T11:58:00.000Z,36
2018-07-05T11:59:00.000Z,36
2018-07-05T12:02:46.000Z,36
2018-07-05T12:03:46.000Z,36
2018-07-05T12:04:46.000Z,36
2018-07-05T12:05:46.000Z,36
2018-07-05T12:06:46.000Z,36
2018-07-05T12:07:46.000Z,36
2018-07-05T12:08:46.000Z,37
2018-07-05T12:09:46.000Z,37
2018-07-05T12:10:46.000Z,37
2018-07-05T12:11:45.000Z,37
2018-07-05T12:13:45.000Z,36
2018-07-05T12:14:45.000Z,36
2018-07-05T12:15:45.000Z,36
2018-07-05T12:16:45.000Z,36
2018-07-05T12:17:45.000Z,36
2018-07-05T12:18:45.000Z,36
2018-07-05T12:19:45.000Z,36
2018-07-05T12:20:45.000Z,36
2018-07-05T12:21:45.000Z,36
2018-07-05T12:22:45.000Z,36
2018-07-05T12:23:45.000Z,36
2018-07-05T12:24:45.000Z,36
2018-07-05T12:25:45.000Z,36
2018-07-05T12:26:45.000Z,36
2018-07-05T12:27:45.000Z,36
2018-07-05T12:28:45.000Z,36
2018-07-05T12:29:45.000Z,36
2018-07-05T12:30:45.000Z,36
2018-07-05T12:32:45.000Z,36
2018-07-05T12:33:45.000Z,36
2018-07-05T12:35:45.000Z,36
2018-07-05T12:36:45.000Z,36
2018-07-05T12:37:45.000Z,36
2018-07-05T12:38:45.000Z,36
2018-07-05T12:39:45.000Z,36
2018-07-05T12:40:45.000Z,36
2018-07-05T12:41:45.000Z,36
2018-07-05T12:43:45.000Z,35
2018-07-05T12:44:45.000Z,36
2018-07-05T12:45:45.000Z,36
2018-07-05T12:46:45.000Z,36
2018-07-05T12:47:45.000Z,36
2018-07-05T12:48:45.000Z,36
2018-07-05T12:49:45.000Z,36
2018-07-05T12:51:45.000Z,36
2018-07-05T12:52:45.000Z,36
2018-07-05T12:53:45.000Z,36
2018-07-05T12:54:45.000Z,36
2018-07-05T12:55:45.000Z,36
2018-07-05T12:56:45.000Z,36
2018-07-05T12:57:45.000Z,36
2018-07-05T12:58:45.000Z,36
2018-07-05T12:59:45.000Z,36
2018-07-05T13:00:45.000Z,36
2018-07-05T13:01:45.000Z,36
2018-07-05T13:02:45.000Z,36
2018-07-05T13:03:45.000Z,36
2018-07-05T13:04:45.000Z,36
2018-07-05T13:05:45.000Z,36
2018-07-05T13:06:45.000Z,36
2018-07-05T13:08:45.000Z,35
2018-07-05T13:09:45.000Z,35
2018-07-05T13:10:45.000Z,35
2018-07-05T13:11:45.000Z,35
2018-07-05T13:12:45.000Z,35
2018-07-05T13:14:45.000Z,34
2018-07-05T13:15:46.000Z,35
2018-07-05T13:16:46.000Z,35
2018-07-05T13:17:46.000Z,35
2018-07-05T13:19:46.000Z,34
2018-07-05T13:20:46.000Z,35
2018-07-05T13:21:46.000Z,35
2018-07-05T13:22:46.000Z,35
2018-07-05T13:23:46.000Z,35
2018-07-05T13:24:46.000Z,35
2018-07-05T13:25:46.000Z,34
2018-07-05T13:26:46.000Z,34
2018-07-05T13:27:46.000Z,34
2018-07-05T13:28:46.000Z,34
2018-07-05T13:29:46.000Z,34
2018-07-05T13:31:46.000Z,34
2018-07-05T13:32:46.000Z,34
2018-07-05T13:33:46.000Z,34
2018-07-05T13:34:46.000Z,34
2018-07-05T13:35:46.000Z,34
2018-07-05T13:36:46.000Z,34
2018-07-05T13:38:46.000Z,34
2018-07-05T13:39:46.000Z,34
2018-07-05T13:40:46.000Z,34
2018-07-05T13:41:46.000Z,34
2018-07-05T13:42:46.000Z,34
2018-07-05T13:43:46.000Z,34
2018-07-05T13:44:46.000Z,34
2018-07-05T13:46:46.000Z,34
2018-07-05T13:47:46.000Z,34
2018-07-05T13:49:46.000Z,34
2018-07-05T13:50:46.000Z,34
2018-07-05T13:51:46.000Z,34
2018-07-05T13:53:46.000Z,34
2018-07-05T13:54:46.000Z,34
2018-07-05T13:55:46.000Z,34
2018-07-05T13:56:46.000Z,34
2018-07-05T13:57:46.000Z,34
2018-07-05T13:58:46.000Z,34
2018-07-05T13:59:46.000Z,34
2018-07-05T14:00:46.000Z,34
2018-07-05T14:01:46.000Z,34
2018-07-05T14:02:46.000Z,34
2018-07-05T14:03:46.000Z,33
2018-07-05T14:04:46.000Z,33
2018-07-05T14:05:46.000Z,33
2018-07-05T14:06:46.000Z,33
2018-07-05T14:07:46.000Z,33
2018-07-05T14:08:46.000Z,33
2018-07-05T14:10:46.000Z,33
2018-07-05T14:11:46.000Z,33
2018-07-05T14:12:46.000Z,33
2018-07-05T14:13:46.000Z,33
2018-07-05T14:14:46.000Z,33
2018-07-05T14:16:46.000Z,33
2018-07-05T14:17:46.000Z,33
2018-07-05T14:18:46.000Z,33
2018-07-05T14:19:46.000Z,33
2018-07-05T14:20:46.000Z,33
2018-07-05T14:21:46.000Z,34
2018-07-05T14:22:46.000Z,34
2018-07-05T14:23:46.000Z,34
2018-07-05T14:24:46.000Z,33
2018-07-05T14:25:46.000Z,33
2018-07-05T14:26:46.000Z,33
2018-07-05T14:28:46.000Z,33
2018-07-05T14:29:46.000Z,33
2018-07-05T14:30:46.000Z,33
2018-07-05T14:31:46.000Z,33
2018-07-05T14:32:46.000Z,33
2018-07-05T14:33:46.000Z,33
2018-07-05T14:34:46.000Z,33
2018-07-05T14:35:46.000Z,33
2018-07-05T14:36:46.000Z,33
2018-07-05T14:37:46.000Z,33
2018-07-05T14:38:46.000Z,33
2018-07-05T14:39:46.000Z,33
2018-07-05T14:40:46.000Z,33
2018-07-05T14:41:46.000Z,33
2018-07-05T14:42:46.000Z,33
2018-07-05T14:43:46.000Z,33
2018-07-05T14:44:46.000Z,32
2018-07-05T14:45:46.000Z,32
2018-07-05T14:46:46.000Z,32
2018-07-05T14:47:46.000Z,32
2018-07-05T14:48:46.000Z,32
2018-07-05T14:50:46.000Z,32
2018-07-05T14:51:46.000Z,32
2018-07-05T14:52:46.000Z,32
2018-07-05T14:53:46.000Z,32
2018-07-05T14:54:46.000Z,32
2018-07-05T14:55:46.000Z,32
2018-07-05T14:57:46.000Z,32
2018-07-05T14:58:46.000Z,33
2018-07-05T14:59:46.000Z,33
2018-07-05T15:01:46.000Z,33
2018-07-05T15:02:46.000Z,33
2018-07-05T15:03:46.000Z,33
2018-07-05T15:04:46.000Z,33
2018-07-05T15:06:46.000Z,33
2018-07-05T15:07:46.000Z,33
2018-07-05T15:09:46.000Z,33
2018-07-05T15:10:46.000Z,33
2018-07-05T15:11:46.000Z,33
2018-07-05T15:13:46.000Z,33
2018-07-05T15:14:46.000Z,33
2018-07-05T15:15:46.000Z,33
2018-07-05T15:16:46.000Z,33
2018-07-05T15:17:46.000Z,33
2018-07-05T15:18:46.000Z,32
2018-07-05T15:19:46.000Z,32
2018-07-05T15:20:46.000Z,32
2018-07-05T15:22:46.000Z,32
2018-07-05T15:23:46.000Z,32
2018-07-05T15:24:46.000Z,32
2018-07-05T15:25:46.000Z,32
2018-07-05T15:26:46.000Z,32
2018-07-05T15:27:46.000Z,32
2018-07-05T15:28:46.000Z,32
2018-07-05T15:29:46.000Z,32
2018-07-05T15:30:46.000Z,32
2018-07-05T15:31:46.000Z,32
2018-07-05T15:32:46.000Z,32
2018-07-05T15:33:46.000Z,32
2018-07-05T15:34:46.000Z,32
2018-07-05T15:36:46.000Z,32
2018-07-05T15:37:46.000Z,32
2018-07-05T15:38:46.000Z,32
2018-07-05T15:39:46.000Z,32
2018-07-05T15:40:46.000Z,32
2018-07-05T15:41:46.000Z,32
2018-07-05T15:42:46.000Z,32
2018-07-05T15:43:46.000Z,32
2018-07-05T15:44:46.000Z,32
2018-07-05T15:45:46.000Z,32
2018-07-05T15:46:46.000Z,32
2018-07-05T15:47:46.000Z,32
2018-07-05T15:48:46.000Z,32
2018-07-05T15:49:46.000Z,32
2018-07-05T15:51:46.000Z,32
2018-07-05T15:53:46.000Z,31
2018-07-05T15:55:46.000Z,31
2018-07-05T15:56:46.000Z,32
2018-07-05T15:57:46.000Z,32
2018-07-05T15:58:46.000Z,32
2018-07-05T15:59:46.000Z,32
2018-07-05T16:00:46.000Z,32
2018-07-05T16:01:46.000Z,32
2018-07-05T16:02:46.000Z,32
2018-07-05T16:03:46.000Z,32
2018-07-05T16:04:46.000Z,32
2018-07-05T16:05:46.000Z,32